createdAt,value
2019-01-25T00:02:23.720Z,22.70
2019-01-25T00:04:56.349Z,22.60
2019-01-25T00:07:29.035Z,22.50
2019-01-25T00:10:01.761Z,22.40
2019-01-25T00:12:35.708Z,22.30
2019-01-25T00:15:10.753Z,22.20
2019-01-25T00:17:43.515Z,22.20
2019-01-25T00:20:16.172Z,22.10
2019-01-25T00:22:48.904Z,22.00
2019-01-25T00:25:21.630Z,22.00
2019-01-25T00:28:03.244Z,21.90
2019-01-25T00:30:35.508Z,21.80
2019-01-25T00:33:08.262Z,21.70
2019-01-25T00:35:41.029Z,21.60
2019-01-25T00:38:13.770Z,21.50
2019-01-25T00:40:47.223Z,21.40
2019-01-25T00:43:26.314Z,21.30
2019-01-25T00:45:59.068Z,21.30
2019-01-25T00:48:31.823Z,21.20
2019-01-25T00:51:04.611Z,21.20
2019-01-25T00:53:44.163Z,21.10
2019-01-25T00:56:16.810Z,20.90
2019-01-25T00:58:49.702Z,20.90
2019-01-25T01:01:27.077Z,20.90
2019-01-25T01:03:59.787Z,20.80
2019-01-25T01:06:32.499Z,20.60
2019-01-25T01:09:06.002Z,20.50
2019-01-25T01:11:38.727Z,20.40
2019-01-25T01:14:18.739Z,20.30
2019-01-25T01:16:51.512Z,20.30
2019-01-25T01:19:24.365Z,20.20
2019-01-25T01:21:57.241Z,20.20
2019-01-25T01:24:36.746Z,20.00
2019-01-25T01:27:09.884Z,20.00
2019-01-25T01:29:43.137Z,19.90
2019-01-25T01:32:15.737Z,19.90
2019-01-25T01:34:55.654Z,19.80
2019-01-25T01:37:28.276Z,19.70
2019-01-25T01:40:01.020Z,19.60
2019-01-25T01:42:33.631Z,19.50
2019-01-25T01:45:06.364Z,19.50
2019-01-25T01:47:39.133Z,19.50
2019-01-25T01:50:20.014Z,19.40
2019-01-25T01:52:53.653Z,19.30
2019-01-25T01:55:28.496Z,19.30
2019-01-25T01:58:01.067Z,19.30
2019-01-25T02:00:47.020Z,19.20
2019-01-25T02:03:19.692Z,19.20
2019-01-25T02:05:52.659Z,19.10
2019-01-25T02:08:25.327Z,19.10
2019-01-25T02:10:58.066Z,19.00
2019-01-25T02:13:30.709Z,18.90
2019-01-25T02:16:10.064Z,18.90
2019-01-25T02:18:42.756Z,18.90
2019-01-25T02:21:15.795Z,18.90
2019-01-25T02:23:48.447Z,18.80
2019-01-25T02:26:21.312Z,18.80
2019-01-25T02:28:54.082Z,18.70
2019-01-25T02:31:26.862Z,18.70
2019-01-25T02:34:00.705Z,18.60
2019-01-25T02:36:40.349Z,18.60
2019-01-25T02:39:13.062Z,18.50
2019-01-25T02:41:45.807Z,18.50
2019-01-25T02:44:18.483Z,18.50
2019-01-25T02:46:51.227Z,18.50
2019-01-25T02:49:23.908Z,18.50
2019-01-25T02:52:03.646Z,18.50
2019-01-25T02:54:36.339Z,18.50
2019-01-25T02:57:16.148Z,18.40
2019-01-25T02:59:48.745Z,18.30
2019-01-25T03:02:28.713Z,18.30
2019-01-25T03:05:01.371Z,18.30
2019-01-25T03:07:34.013Z,18.30
2019-01-25T03:10:07.700Z,18.30
2019-01-25T03:12:47.042Z,18.30
2019-01-25T03:15:22.349Z,18.20
2019-01-25T03:17:55.116Z,18.30
2019-01-25T03:20:27.693Z,18.30
2019-01-25T03:23:00.462Z,18.30
2019-01-25T03:25:33.233Z,18.30
2019-01-25T03:28:13.225Z,18.20
2019-01-25T03:30:45.819Z,18.10
2019-01-25T03:33:18.638Z,18.20
2019-01-25T03:35:51.315Z,18.20
2019-01-25T03:38:30.317Z,18.10
2019-01-25T03:41:02.964Z,18.10
2019-01-25T03:43:35.688Z,18.10
2019-01-25T03:46:08.399Z,18.00
2019-01-25T03:48:47.711Z,17.90
2019-01-25T03:51:20.350Z,17.90
2019-01-25T03:53:53.226Z,17.70
2019-01-25T03:56:25.903Z,17.70
2019-01-25T03:58:58.595Z,17.60
2019-01-25T04:01:31.350Z,17.60
2019-01-25T04:04:10.333Z,17.50
2019-01-25T04:06:42.970Z,17.50
2019-01-25T04:09:21.914Z,17.40
2019-01-25T04:11:54.590Z,17.40
2019-01-25T04:14:34.160Z,17.40
2019-01-25T04:17:06.778Z,17.40
2019-01-25T04:19:45.940Z,17.40
2019-01-25T04:22:18.607Z,17.30
2019-01-25T04:24:51.469Z,17.30
2019-01-25T04:27:24.075Z,17.30
2019-01-25T04:29:56.837Z,17.20
2019-01-25T04:32:29.521Z,17.20
2019-01-25T04:35:02.262Z,17.20
2019-01-25T04:37:34.957Z,17.10
2019-01-25T04:40:08.367Z,17.10
2019-01-25T04:42:41.538Z,17.10
2019-01-25T04:45:16.107Z,17.10
2019-01-25T04:47:48.918Z,17.10
2019-01-25T04:50:23.416Z,17.00
2019-01-25T04:52:56.335Z,17.00
2019-01-25T04:55:38.409Z,16.90
2019-01-25T04:58:13.886Z,16.90
2019-01-25T05:00:53.026Z,16.90
2019-01-25T05:03:27.107Z,16.90
2019-01-25T05:06:13.590Z,16.80
2019-01-25T05:08:46.342Z,16.90
2019-01-25T05:11:22.353Z,16.90
2019-01-25T05:13:55.000Z,17.00
2019-01-25T05:16:27.809Z,16.90
2019-01-25T05:19:00.478Z,16.80
2019-01-25T05:21:40.340Z,16.90
2019-01-25T05:24:14.672Z,16.80
2019-01-25T05:26:47.387Z,16.80
2019-01-25T05:29:21.426Z,16.70
2019-01-25T05:31:54.340Z,16.70
2019-01-25T05:34:26.977Z,16.60
2019-01-25T05:36:59.767Z,16.70
2019-01-25T05:39:32.459Z,16.70
2019-01-25T05:42:05.119Z,16.60
2019-01-25T05:44:37.823Z,16.60
2019-01-25T05:47:14.163Z,16.60
2019-01-25T05:49:46.784Z,16.60
2019-01-25T05:52:23.709Z,16.60
2019-01-25T05:54:56.280Z,16.50
2019-01-25T05:57:29.005Z,16.50
2019-01-25T06:00:01.641Z,16.50
2019-01-25T06:02:40.631Z,16.40
2019-01-25T06:05:13.299Z,16.40
2019-01-25T06:07:46.244Z,16.40
2019-01-25T06:10:18.950Z,16.40
2019-01-25T06:12:55.488Z,16.40
2019-01-25T06:15:31.589Z,16.40
2019-01-25T06:18:06.189Z,16.40
2019-01-25T06:20:38.868Z,16.40
2019-01-25T06:23:11.595Z,16.30
2019-01-25T06:25:44.293Z,16.40
2019-01-25T06:28:23.647Z,16.40
2019-01-25T06:30:56.259Z,16.30
2019-01-25T06:33:29.047Z,16.30
2019-01-25T06:36:01.779Z,16.30
2019-01-25T06:38:41.275Z,16.30
2019-01-25T06:41:13.896Z,16.20
2019-01-25T06:43:46.610Z,16.20
2019-01-25T06:46:19.346Z,16.20
2019-01-25T06:48:58.738Z,16.20
2019-01-25T06:51:31.363Z,16.10
2019-01-25T06:54:10.465Z,16.10
2019-01-25T06:56:43.070Z,16.10
2019-01-25T06:59:18.287Z,16.10
2019-01-25T07:02:09.786Z,16.10
2019-01-25T07:04:42.523Z,16.10
2019-01-25T07:07:26.593Z,16.00
2019-01-25T07:10:00.315Z,16.00
2019-01-25T07:12:33.028Z,16.00
2019-01-25T07:15:05.779Z,15.90
2019-01-25T07:17:38.444Z,15.90
2019-01-25T07:20:14.121Z,15.80
2019-01-25T07:22:46.782Z,16.00
2019-01-25T07:25:19.498Z,15.90
2019-01-25T07:27:52.165Z,15.90
2019-01-25T07:30:24.916Z,15.90
2019-01-25T07:32:57.560Z,15.80
2019-01-25T07:35:37.005Z,15.80
2019-01-25T07:38:09.845Z,15.80
2019-01-25T07:40:49.097Z,15.80
2019-01-25T07:43:21.895Z,15.80
2019-01-25T07:45:54.698Z,15.80
2019-01-25T07:48:27.399Z,15.80
2019-01-25T07:51:00.107Z,15.80
2019-01-25T07:53:32.680Z,15.80
2019-01-25T07:56:05.489Z,15.70
2019-01-25T07:58:38.216Z,15.70
2019-01-25T08:01:10.944Z,15.60
2019-01-25T08:03:43.664Z,15.60
2019-01-25T08:06:16.576Z,15.60
2019-01-25T08:08:49.356Z,15.60
2019-01-25T08:11:22.241Z,15.60
2019-01-25T08:13:54.966Z,15.60
2019-01-25T08:16:27.762Z,15.50
2019-01-25T08:19:00.351Z,15.50
2019-01-25T08:21:33.053Z,15.50
2019-01-25T08:24:05.760Z,15.50
2019-01-25T08:26:45.260Z,15.50
2019-01-25T08:29:17.950Z,15.50
2019-01-25T08:31:50.731Z,15.50
2019-01-25T08:34:23.383Z,15.50
2019-01-25T08:36:56.136Z,15.50
2019-01-25T08:39:28.740Z,15.50
2019-01-25T08:42:15.271Z,15.50
2019-01-25T08:44:42.432Z,15.50
2019-01-25T08:47:15.171Z,15.50
2019-01-25T08:49:47.823Z,15.50
2019-01-25T08:52:20.532Z,15.50
2019-01-25T08:54:53.229Z,15.50
2019-01-25T08:57:32.725Z,15.50
2019-01-25T09:00:08.692Z,15.50
2019-01-25T09:02:48.337Z,15.50
2019-01-25T09:05:21.230Z,15.50
2019-01-25T09:08:00.076Z,15.50
2019-01-25T09:10:32.716Z,15.50
2019-01-25T09:13:18.767Z,15.50
2019-01-25T09:15:51.378Z,15.60
2019-01-25T09:18:24.133Z,15.60
2019-01-25T09:20:56.827Z,15.60
2019-01-25T09:23:29.509Z,15.70
2019-01-25T09:26:02.205Z,15.70
2019-01-25T09:28:41.594Z,15.70
2019-01-25T09:31:14.188Z,15.70
2019-01-25T09:33:46.965Z,15.80
2019-01-25T09:36:19.648Z,15.80
2019-01-25T09:38:52.352Z,15.80
2019-01-25T09:41:25.010Z,15.80
2019-01-25T09:43:57.645Z,15.80
2019-01-25T09:46:30.332Z,15.80
2019-01-25T09:49:03.174Z,15.90
2019-01-25T09:51:35.862Z,15.80
2019-01-25T09:54:08.648Z,15.80
2019-01-25T09:56:41.315Z,15.90
2019-01-25T09:59:14.016Z,15.90
2019-01-25T10:01:46.681Z,15.90
2019-01-25T10:04:19.394Z,16.00
2019-01-25T10:06:52.001Z,16.00
2019-01-25T10:09:24.802Z,15.90
2019-01-25T10:11:57.461Z,16.00
2019-01-25T10:14:36.830Z,16.00
2019-01-25T10:17:09.489Z,16.10
2019-01-25T10:19:49.188Z,16.10
2019-01-25T10:22:21.870Z,16.10
2019-01-25T10:25:00.764Z,16.10
2019-01-25T10:27:33.366Z,16.10
2019-01-25T10:30:06.117Z,16.20
2019-01-25T10:32:38.807Z,16.00
2019-01-25T10:35:12.933Z,16.10
2019-01-25T10:37:45.581Z,16.10
2019-01-25T10:40:20.671Z,16.00
2019-01-25T10:42:53.767Z,16.00
2019-01-25T10:45:34.934Z,15.90
2019-01-25T10:48:07.909Z,15.80
2019-01-25T10:50:47.300Z,15.80
2019-01-25T10:53:20.024Z,15.70
2019-01-25T10:55:59.283Z,15.80
2019-01-25T10:58:31.973Z,15.70
2019-01-25T11:01:04.697Z,15.60
2019-01-25T11:03:37.451Z,15.60
2019-01-25T11:06:10.175Z,15.70
2019-01-25T11:08:42.859Z,15.60
2019-01-25T11:11:15.590Z,15.60
2019-01-25T11:13:48.316Z,15.60
2019-01-25T11:16:21.297Z,15.60
2019-01-25T11:18:54.016Z,15.60
2019-01-25T11:21:26.678Z,15.60
2019-01-25T11:23:59.353Z,15.60
2019-01-25T11:26:32.102Z,15.60
2019-01-25T11:29:04.775Z,15.50
2019-01-25T11:31:43.906Z,15.60
2019-01-25T11:34:16.550Z,15.60
2019-01-25T11:36:49.311Z,15.50
2019-01-25T11:39:21.920Z,15.50
2019-01-25T11:41:54.706Z,15.50
2019-01-25T11:44:27.372Z,15.50
2019-01-25T11:47:00.199Z,15.50
2019-01-25T11:49:32.843Z,15.40
2019-01-25T11:52:05.616Z,15.50
2019-01-25T11:54:38.241Z,15.40
2019-01-25T11:57:10.908Z,15.40
2019-01-25T11:59:43.623Z,15.40
2019-01-25T12:02:20.847Z,15.40
2019-01-25T12:04:50.557Z,15.40
2019-01-25T12:07:30.245Z,15.40
2019-01-25T12:10:02.960Z,15.30
2019-01-25T12:12:35.616Z,15.40
2019-01-25T12:15:09.173Z,15.40
2019-01-25T12:17:42.056Z,15.50
2019-01-25T12:20:21.926Z,15.40
2019-01-25T12:22:54.640Z,15.40
2019-01-25T12:25:27.432Z,15.40
2019-01-25T12:28:06.631Z,15.30
2019-01-25T12:30:40.850Z,15.40
2019-01-25T12:33:14.886Z,15.30
2019-01-25T12:35:48.375Z,15.30
2019-01-25T12:38:21.164Z,15.30
2019-01-25T12:40:56.307Z,15.30
2019-01-25T12:43:34.865Z,15.30
2019-01-25T12:46:07.595Z,15.30
2019-01-25T12:48:43.119Z,15.30
2019-01-25T12:51:23.605Z,15.30
2019-01-25T12:54:05.231Z,15.30
2019-01-25T12:56:38.181Z,15.30
2019-01-25T12:59:12.379Z,15.40
2019-01-25T13:01:45.170Z,15.40
2019-01-25T13:04:17.944Z,15.40
2019-01-25T13:06:50.647Z,15.60
2019-01-25T13:09:23.535Z,15.60
2019-01-25T13:11:56.203Z,15.60
2019-01-25T13:14:36.556Z,15.60
2019-01-25T13:17:09.265Z,15.60
2019-01-25T13:19:42.312Z,15.60
2019-01-25T13:22:14.940Z,15.70
2019-01-25T13:24:53.794Z,15.70
2019-01-25T13:27:26.560Z,15.70
2019-01-25T13:29:59.487Z,15.70
2019-01-25T13:32:32.202Z,15.70
2019-01-25T13:35:11.901Z,15.70
2019-01-25T13:37:45.705Z,15.70
2019-01-25T13:40:26.718Z,15.80
2019-01-25T13:42:59.541Z,15.80
2019-01-25T13:45:33.654Z,15.80
2019-01-25T13:48:06.753Z,15.80
2019-01-25T13:50:39.465Z,15.90
2019-01-25T13:53:12.221Z,16.10
2019-01-25T13:55:46.702Z,16.20
2019-01-25T13:58:24.724Z,16.40
2019-01-25T14:01:04.000Z,16.50
2019-01-25T14:03:36.613Z,16.70
2019-01-25T14:06:09.353Z,16.80
2019-01-25T14:08:41.988Z,17.00
2019-01-25T14:11:31.766Z,17.20
2019-01-25T14:14:17.177Z,17.30
2019-01-25T14:16:56.152Z,17.40
2019-01-25T14:19:28.809Z,17.50
2019-01-25T14:22:12.423Z,17.60
2019-01-25T14:24:45.132Z,17.90
2019-01-25T14:27:17.910Z,18.10
2019-01-25T14:29:50.683Z,18.40
2019-01-25T14:32:30.668Z,18.50
2019-01-25T14:35:03.768Z,18.70
2019-01-25T14:37:42.839Z,18.80
2019-01-25T14:40:17.876Z,19.20
2019-01-25T14:42:54.471Z,19.20
2019-01-25T14:45:27.109Z,19.20
2019-01-25T14:48:09.887Z,19.10
2019-01-25T14:50:42.559Z,19.30
2019-01-25T14:53:29.219Z,19.50
2019-01-25T14:56:03.218Z,19.50
2019-01-25T14:58:37.728Z,19.70
2019-01-25T15:01:19.069Z,19.80
2019-01-25T15:03:58.546Z,19.80
2019-01-25T15:06:31.220Z,20.10
2019-01-25T15:09:05.530Z,20.10
2019-01-25T15:11:38.537Z,20.20
2019-01-25T15:14:17.809Z,20.50
2019-01-25T15:16:50.600Z,20.70
2019-01-25T15:19:23.382Z,20.80
2019-01-25T15:21:56.138Z,20.50
2019-01-25T15:24:35.599Z,20.50
2019-01-25T15:27:08.325Z,20.40
2019-01-25T15:29:41.106Z,20.70
2019-01-25T15:32:13.820Z,20.70
2019-01-25T15:34:53.969Z,21.10
2019-01-25T15:37:26.669Z,21.10
2019-01-25T15:39:59.584Z,21.50
2019-01-25T15:42:32.302Z,22.00
2019-01-25T15:45:11.822Z,21.80
2019-01-25T15:47:47.481Z,22.00
2019-01-25T15:50:34.675Z,21.70
2019-01-25T15:53:07.500Z,21.70
2019-01-25T15:55:40.433Z,22.10
2019-01-25T15:58:13.281Z,21.90
2019-01-25T16:00:52.623Z,21.30
2019-01-25T16:03:25.420Z,21.30
2019-01-25T16:06:04.349Z,21.00
2019-01-25T16:08:37.099Z,21.00
2019-01-25T16:11:09.907Z,20.80
2019-01-25T16:13:43.202Z,20.90
2019-01-25T16:16:23.930Z,21.10
2019-01-25T16:18:56.602Z,21.20
2019-01-25T16:21:29.665Z,21.10
2019-01-25T16:24:02.330Z,21.20
2019-01-25T16:26:42.478Z,20.90
2019-01-25T16:29:15.238Z,21.20
2019-01-25T16:31:54.877Z,21.30
2019-01-25T16:34:27.624Z,21.00
2019-01-25T16:37:00.378Z,21.40
2019-01-25T16:39:33.136Z,21.40
2019-01-25T16:42:13.503Z,21.30
2019-01-25T16:44:46.198Z,21.20
2019-01-25T16:47:25.319Z,21.00
2019-01-25T16:50:00.955Z,21.00
2019-01-25T16:52:33.791Z,21.30
2019-01-25T16:55:06.512Z,21.20
2019-01-25T16:57:39.351Z,21.40
2019-01-25T17:00:20.785Z,21.40
2019-01-25T17:03:00.617Z,21.50
2019-01-25T17:05:33.317Z,21.70
2019-01-25T17:08:09.564Z,21.70
2019-01-25T17:10:42.300Z,21.70
2019-01-25T17:13:21.489Z,21.40
2019-01-25T17:15:55.468Z,21.50
2019-01-25T17:18:35.213Z,21.80
2019-01-25T17:21:08.517Z,21.90
2019-01-25T17:23:41.597Z,22.00
2019-01-25T17:26:14.978Z,22.00
2019-01-25T17:29:00.122Z,22.10
2019-01-25T17:31:34.095Z,22.30
2019-01-25T17:34:07.562Z,22.60
2019-01-25T17:36:40.330Z,22.80
2019-01-25T17:39:25.691Z,23.00
2019-01-25T17:41:59.356Z,22.50
2019-01-25T17:44:41.498Z,22.40
2019-01-25T17:47:13.802Z,22.40
2019-01-25T17:49:54.126Z,22.50
2019-01-25T17:52:28.218Z,22.40
2019-01-25T17:55:01.033Z,22.60
2019-01-25T17:57:37.286Z,22.50
2019-01-25T18:00:20.635Z,22.80
2019-01-25T18:02:53.407Z,22.90
2019-01-25T18:05:34.749Z,22.70
2019-01-25T18:08:07.892Z,23.10
2019-01-25T18:10:48.691Z,22.90
2019-01-25T18:13:21.284Z,22.60
2019-01-25T18:16:00.070Z,22.30
2019-01-25T18:18:35.391Z,22.70
2019-01-25T18:21:09.484Z,22.80
2019-01-25T18:23:42.268Z,23.00
2019-01-25T18:26:18.360Z,22.90
2019-01-25T18:29:04.245Z,22.90
2019-01-25T18:31:37.528Z,23.10
2019-01-25T18:34:10.700Z,23.00
2019-01-25T18:36:43.448Z,22.80
2019-01-25T18:39:16.132Z,23.10
2019-01-25T18:41:55.999Z,23.20
2019-01-25T18:44:28.684Z,23.20
2019-01-25T18:47:01.417Z,23.10
2019-01-25T18:49:34.109Z,23.00
2019-01-25T18:52:13.630Z,23.20
2019-01-25T18:54:46.265Z,23.50
2019-01-25T18:57:26.444Z,23.60
2019-01-25T19:00:03.079Z,23.50
2019-01-25T19:02:35.931Z,23.60
2019-01-25T19:05:09.202Z,23.50
2019-01-25T19:07:43.895Z,23.80
2019-01-25T19:10:22.848Z,23.80
2019-01-25T19:13:02.668Z,23.80
2019-01-25T19:15:35.360Z,23.90
2019-01-25T19:18:08.206Z,23.80
2019-01-25T19:20:40.924Z,23.80
2019-01-25T19:23:16.683Z,23.70
2019-01-25T19:25:49.522Z,23.80
2019-01-25T19:28:22.718Z,23.80
2019-01-25T19:30:55.469Z,24.10
2019-01-25T19:33:36.328Z,24.50
2019-01-25T19:36:09.222Z,24.40
2019-01-25T19:38:41.947Z,24.50
2019-01-25T19:41:17.243Z,24.40
2019-01-25T19:43:50.098Z,24.30
2019-01-25T19:46:22.766Z,24.80
2019-01-25T19:49:01.933Z,24.70
2019-01-25T19:51:34.648Z,25.00
2019-01-25T19:54:08.436Z,26.20
2019-01-25T19:56:41.115Z,26.70
2019-01-25T19:59:14.060Z,26.80
2019-01-25T20:01:46.744Z,27.40
2019-01-25T20:04:19.506Z,26.80
2019-01-25T20:06:52.202Z,27.30
2019-01-25T20:09:24.922Z,27.60
2019-01-25T20:11:57.572Z,28.10
2019-01-25T20:14:30.376Z,28.20
2019-01-25T20:17:03.496Z,28.10
2019-01-25T20:19:42.577Z,28.50
2019-01-25T20:22:15.256Z,28.70
2019-01-25T20:24:49.053Z,28.30
2019-01-25T20:27:21.848Z,27.80
2019-01-25T20:29:56.558Z,27.70
2019-01-25T20:32:29.285Z,27.80
2019-01-25T20:35:03.582Z,28.30
2019-01-25T20:37:36.492Z,28.90
2019-01-25T20:40:12.317Z,29.00
2019-01-25T20:42:45.147Z,28.60
2019-01-25T20:45:27.109Z,29.10
2019-01-25T20:47:55.943Z,29.10
2019-01-25T20:50:30.285Z,29.60
2019-01-25T20:53:03.445Z,29.30
2019-01-25T20:55:36.373Z,29.70
2019-01-25T20:58:09.503Z,28.00
2019-01-25T21:00:49.455Z,28.30
2019-01-25T21:03:25.778Z,27.80
2019-01-25T21:06:05.607Z,27.60
2019-01-25T21:08:39.654Z,27.40
2019-01-25T21:11:12.846Z,27.50
2019-01-25T21:13:45.554Z,27.70
2019-01-25T21:16:18.639Z,28.00
2019-01-25T21:18:52.355Z,28.10
2019-01-25T21:21:32.607Z,28.40
2019-01-25T21:24:05.725Z,27.50
2019-01-25T21:26:45.340Z,26.80
2019-01-25T21:29:18.180Z,26.10
2019-01-25T21:31:54.433Z,25.70
2019-01-25T21:34:27.483Z,25.40
2019-01-25T21:37:15.069Z,25.20
2019-01-25T21:39:47.726Z,25.10
2019-01-25T21:42:28.436Z,25.20
2019-01-25T21:45:01.665Z,25.10
2019-01-25T21:47:42.532Z,25.40
2019-01-25T21:50:17.088Z,25.10
2019-01-25T21:52:50.481Z,24.90
2019-01-25T21:55:23.713Z,24.90
2019-01-25T21:58:05.303Z,24.80
2019-01-25T22:00:38.452Z,24.90
2019-01-25T22:03:19.334Z,24.80
2019-01-25T22:05:52.537Z,24.70
2019-01-25T22:08:32.107Z,24.60
2019-01-25T22:11:05.373Z,24.50
2019-01-25T22:13:52.639Z,24.60
2019-01-25T22:16:19.671Z,24.30
2019-01-25T22:18:53.729Z,24.20
2019-01-25T22:21:27.571Z,24.00
2019-01-25T22:24:08.250Z,23.90
2019-01-25T22:26:41.238Z,24.10
2019-01-25T22:29:17.900Z,24.00
2019-01-25T22:31:50.891Z,24.00
2019-01-25T22:34:23.652Z,23.80
2019-01-25T22:36:56.819Z,23.80
2019-01-25T22:39:30.158Z,24.00
2019-01-25T22:42:03.758Z,23.80
2019-01-25T22:44:43.678Z,23.70
2019-01-25T22:47:20.438Z,23.70
2019-01-25T22:49:50.898Z,23.90
2019-01-25T22:52:23.674Z,23.90
2019-01-25T22:54:56.454Z,24.20
2019-01-25T22:57:30.315Z,24.70
2019-01-25T23:00:03.289Z,25.00
2019-01-25T23:02:37.170Z,25.50
2019-01-25T23:06:05.597Z,25.50
2019-01-25T23:08:38.355Z,25.30
2019-01-25T23:11:18.100Z,25.10
2019-01-25T23:13:50.805Z,25.00
2019-01-25T23:16:30.726Z,24.50
2019-01-25T23:19:03.569Z,24.70
2019-01-25T23:21:36.414Z,24.70
2019-01-25T23:24:09.335Z,24.90
2019-01-25T23:26:43.304Z,24.70
2019-01-25T23:29:16.273Z,24.40
2019-01-25T23:31:49.060Z,24.00
2019-01-25T23:34:22.125Z,24.10
2019-01-25T23:36:54.803Z,24.10
2019-01-25T23:39:28.619Z,23.40
2019-01-25T23:42:08.400Z,22.90
2019-01-25T23:44:41.467Z,22.30
2019-01-25T23:47:21.346Z,22.20
2019-01-25T23:49:54.185Z,22.10
2019-01-25T23:52:26.943Z,21.90
2019-01-25T23:54:59.650Z,21.70
2019-01-25T23:57:39.147Z,21.60
